Parambu, Brazil
Current Conditions -  °F | °C
As of 7:00 AM on Saturday 25 Oct 2014 (Local Time) from SBJU Reporting Station
Broken Clouds Broken Clouds  
Wind Chill: 79°   Ceiling: 2000
Heat Index: 81°   Visibility: 6mi
Dew Point: 68°   Wind: 12mph
Humidity: 69%   Direction: 140°SE
Pressure: 30.03"   Gusts: NA
Location:  6.21°S, 40.69°W
Report Text: SBJU 251000Z 14010KT 9999 BKN020 26/20 Q1017
Loading
Personal Weather Stations






























Interactive Weather Map
Tropical Storm Tracking
New forecast layout! Learn more

10-Day Weather Forecast

Advertisements
Track Severe Weather on mobile